Time;durP1;ratioP1;P1;durP2;ratioP2;P2;SDS_P1;SDS_P2;PMS_P1;PMS_P2;Temp;Humidity;BMP_temperature;BMP_pressure;BME280_temperature;BME280_humidity;BME280_pressure;Samples;Min_cycle;Max_cycle;Signal;HPM_P1;HPM_P2
2022/03/13 00:00:54;;;;;;;25.73;15.43;;;-0.20;99.20;;;;;;5038881;28;20034;-45
2022/03/13 00:03:21;;;;;;;23.83;15.88;;;-0.20;99.10;;;;;;5032912;28;20029;-45
2022/03/13 00:05:50;;;;;;;27.55;16.27;;;-0.10;98.90;;;;;;5024602;28;20082;-45
2022/03/13 00:08:31;;;;;;;27.77;15.75;;;-0.30;99.20;;;;;;5036746;28;20037;-45
2022/03/13 00:11:10;;;;;;;29.70;16.13;;;-0.30;99.30;;;;;;5037478;28;20033;-45
2022/03/13 00:13:41;;;;;;;31.92;17.73;;;-0.20;99.30;;;;;;5038759;28;20488;-43
2022/03/13 00:16:08;;;;;;;18.42;9.43;;;-0.30;99.40;;;;;;5035106;28;20033;-43
2022/03/13 00:18:36;;;;;;;17.58;9.27;;;-1.00;99.90;;;;;;5036122;28;20029;-45
2022/03/13 00:21:04;;;;;;;20.42;12.32;;;-1.00;99.90;;;;;;5038389;28;20037;-43
2022/03/13 00:23:31;;;;;;;19.13;11.82;;;-1.00;99.90;;;;;;5036023;28;20044;-44
2022/03/13 00:25:57;;;;;;;25.13;15.10;;;-1.00;99.90;;;;;;5037001;28;20068;-45
2022/03/13 00:28:22;;;;;;;24.15;16.15;;;-0.90;99.90;;;;;;5043675;28;20410;-45
2022/03/13 00:30:48;;;;;;;34.20;16.65;;;-1.00;99.90;;;;;;5018271;28;20052;-44
2022/03/13 00:33:14;;;;;;;26.50;16.75;;;-0.90;99.90;;;;;;5035837;28;20457;-43
2022/03/13 00:35:40;;;;;;;54.20;29.20;;;-0.80;99.90;;;;;;5036481;28;20029;-43
2022/03/13 00:38:07;;;;;;;34.70;21.80;;;;;;;;;;5048430;28;20092;-44
2022/03/13 00:40:33;;;;;;;29.67;18.75;;;-0.10;99.90;;;;;;5036800;28;20087;-44
2022/03/13 00:42:59;;;;;;;25.10;16.23;;;0.00;99.90;;;;;;5035433;28;20029;-45
2022/03/13 00:45:26;;;;;;;21.98;15.55;;;0.30;98.70;;;;;;5039915;28;20473;-46
2022/03/13 00:47:52;;;;;;;27.33;16.67;;;0.20;98.70;;;;;;5038852;28;20052;-44
2022/03/13 00:50:17;;;;;;;24.77;14.85;;;0.10;99.10;;;;;;5050127;28;20772;-46
2022/03/13 00:52:44;;;;;;;35.78;24.25;;;0.50;98.60;;;;;;5033076;28;20030;-44
2022/03/13 00:55:10;;;;;;;31.00;20.75;;;0.80;99.90;;;;;;5036050;28;20453;-44
2022/03/13 00:57:36;;;;;;;28.55;17.88;;;0.90;99.90;;;;;;5033572;28;20042;-46
2022/03/13 01:00:03;;;;;;;27.92;19.60;;;1.10;97.50;;;;;;5036680;28;20030;-44
2022/03/13 01:02:29;;;;;;;25.33;16.90;;;1.00;97.40;;;;;;5035290;28;20021;-44
2022/03/13 01:04:55;;;;;;;29.80;18.42;;;0.80;97.40;;;;;;5033929;28;20586;-44
2022/03/13 01:07:21;;;;;;;29.30;17.30;;;0.20;98.50;;;;;;5035768;28;20117;-45
2022/03/13 01:09:47;;;;;;;22.08;14.05;;;0.40;98.00;;;;;;5034111;28;20175;-43
2022/03/13 01:12:13;;;;;;;25.08;14.32;;;0.00;99.90;;;;;;5035958;28;20033;-43
2022/03/13 01:14:39;;;;;;;23.35;13.98;;;-0.30;99.90;;;;;;5035849;28;20028;-45
2022/03/13 01:17:07;;;;;;;22.67;15.15;;;-0.70;99.90;;;;;;5036648;28;20029;-43
2022/03/13 01:19:32;;;;;;;28.13;16.58;;;-0.80;99.90;;;;;;5036362;28;20362;-43
2022/03/13 01:21:59;;;;;;;29.67;19.00;;;-0.90;99.90;;;;;;5016567;28;20099;-43
2022/03/13 01:24:46;;;;;;;29.42;18.77;;;-0.50;99.90;;;;;;5035820;28;20108;-44
2022/03/13 01:27:15;;;;;;;36.92;23.95;;;0.00;99.90;;;;;;5075038;28;20044;-43
2022/03/13 01:29:42;;;;;;;72.05;34.80;;;0.40;99.90;;;;;;5053096;28;20385;-44
2022/03/13 01:32:10;;;;;;;58.92;29.70;;;0.80;99.90;;;;;;5052207;28;20045;-45
2022/03/13 01:34:38;;;;;;;71.05;36.22;;;0.80;99.00;;;;;;5053990;28;20048;-44
2022/03/13 01:37:10;;;;;;;117.15;51.65;;;0.80;98.60;;;;;;5031864;28;20033;-43
2022/03/13 01:39:37;;;;;;;100.68;46.05;;;0.90;98.20;;;;;;5033555;28;20046;-44
2022/03/13 01:42:04;;;;;;;98.63;42.50;;;1.10;97.90;;;;;;5030691;28;20394;-43
2022/03/13 01:44:30;;;;;;;73.35;35.00;;;1.20;97.70;;;;;;5032812;28;20041;-44
2022/03/13 01:46:56;;;;;;;66.75;34.22;;;1.20;97.40;;;;;;5030514;28;20049;-44
2022/03/13 01:49:23;;;;;;;81.88;41.65;;;;;;;;;;4994713;28;20364;-44
2022/03/13 01:51:50;;;;;;;52.30;29.70;;;;;;;;;;5035506;28;20036;-43
2022/03/13 01:54:17;;;;;;;51.65;28.60;;;;;;;;;;5038281;28;20072;-44
2022/03/13 01:56:43;;;;;;;51.13;27.50;;;;;;;;;;5032600;28;20512;-42
2022/03/13 01:59:10;;;;;;;52.13;29.25;;;;;;;;;;5031884;28;20033;-43
2022/03/13 02:01:37;;;;;;;117.00;53.60;;;;;;;;;;5012549;28;20128;-43
2022/03/13 02:04:03;;;;;;;76.80;39.05;;;;;;;;;;4996095;28;20071;-43
2022/03/13 02:06:30;;;;;;;81.03;37.58;;;;;;;;;;4998443;28;20072;-44
2022/03/13 02:08:56;;;;;;;72.82;38.92;;;;;;;;;;5046535;28;20415;-43
2022/03/13 02:11:24;;;;;;;61.85;34.83;;;;;;;;;;5035126;28;20444;-44
2022/03/13 02:13:51;;;;;;;58.33;31.83;;;;;;;;;;5031498;28;20064;-43
2022/03/13 02:16:18;;;;;;;39.60;25.48;;;;;;;;;;5053212;28;20539;-49
2022/03/13 02:18:49;;;;;;;45.92;28.58;;;;;;;;;;5051600;28;20044;-44
2022/03/13 02:21:18;;;;;;;57.03;36.60;;;;;;;;;;5038176;28;20017;-44
2022/03/13 02:23:44;;;;;;;56.47;37.53;;;;;;;;;;5035062;28;20017;-44
2022/03/13 02:26:10;;;;;;;118.40;56.58;;;;;;;;;;5035293;28;20033;-44
2022/03/13 02:28:38;;;;;;;113.53;54.78;;;;;;;;;;5019392;28;20070;-44
2022/03/13 02:31:05;;;;;;;75.43;38.40;;;;;;;;;;5020517;28;20077;-43
2022/03/13 02:33:31;;;;;;;70.00;35.97;;;;;;;;;;5042123;28;20072;-43
2022/03/13 02:36:03;;;;;;;50.90;27.90;;;;;;;;;;5040265;28;20528;-44
2022/03/13 02:38:29;;;;;;;44.40;27.40;;;;;;;;;;5033995;28;20120;-44
2022/03/13 02:40:56;;;;;;;23.42;16.90;;;;;;;;;;5035363;28;20579;-44
2022/03/13 02:43:22;;;;;;;22.38;14.55;;;;;;;;;;5036523;28;20033;-44
2022/03/13 02:45:52;;;;;;;25.73;17.08;;;-0.10;99.90;;;;;;5033779;28;20026;-45
2022/03/13 02:48:18;;;;;;;35.75;20.50;;;-0.10;99.90;;;;;;5035608;28;20037;-44
2022/03/13 02:50:44;;;;;;;33.33;19.33;;;0.20;99.90;;;;;;5035711;28;20162;-44
2022/03/13 02:53:10;;;;;;;33.50;22.00;;;;;;;;;;5034080;28;20108;-45
2022/03/13 02:55:36;;;;;;;22.88;15.30;;;-0.20;99.90;;;;;;5033526;28;20405;-44
2022/03/13 02:58:03;;;;;;;23.63;14.88;;;-0.20;99.90;;;;;;5035775;28;20033;-44
2022/03/13 03:00:44;;;;;;;24.30;15.25;;;-0.50;99.90;;;;;;5038154;28;20029;-44
2022/03/13 03:03:18;;;;;;;31.08;19.55;;;;;;;;;;5028539;28;20036;-44
2022/03/13 03:05:44;;;;;;;30.73;20.27;;;;;;;;;;5032442;28;20036;-44
2022/03/13 03:08:10;;;;;;;32.90;18.92;;;;;;;;;;5051430;28;20514;-43
2022/03/13 03:10:37;;;;;;;37.80;18.65;;;;;;;;;;5051944;28;20135;-44
2022/03/13 03:13:04;;;;;;;32.45;16.13;;;;;;;;;;5032948;28;20122;-44
2022/03/13 03:15:30;;;;;;;26.30;16.08;;;;;;;;;;5037908;28;20046;-44
2022/03/13 03:17:56;;;;;;;25.83;16.35;;;;;;;;;;5035989;28;20035;-44
2022/03/13 03:20:23;;;;;;;21.58;14.52;;;;;;;;;;5034073;28;20112;-43
2022/03/13 03:22:53;;;;;;;23.45;15.50;;;;;;;;;;5033245;28;20026;-44
2022/03/13 03:25:23;;;;;;;23.08;15.32;;;;;;;;;;5034269;28;20064;-44
2022/03/13 03:27:52;;;;;;;30.45;18.58;;;;;;;;;;5050603;28;20041;-44
2022/03/13 03:30:19;;;;;;;34.00;21.63;;;;;;;;;;5034921;28;20021;-44
2022/03/13 03:32:46;;;;;;;30.92;18.02;;;1.00;97.40;;;;;;5035742;28;20516;-44
2022/03/13 03:35:12;;;;;;;23.45;15.57;;;;;;;;;;5033435;28;20029;-45
2022/03/13 03:37:37;;;;;;;22.88;15.77;;;0.80;98.30;;;;;;5035051;28;20018;-43
2022/03/13 03:40:05;;;;;;;23.42;15.35;;;;;;;;;;5038209;28;20032;-45
2022/03/13 03:42:31;;;;;;;20.75;15.52;;;;;;;;;;5050115;28;20033;-44
2022/03/13 03:44:58;;;;;;;24.48;15.63;;;;;;;;;;5032709;28;20042;-44
2022/03/13 03:47:24;;;;;;;22.65;15.88;;;0.80;99.00;;;;;;5037013;28;20120;-45
2022/03/13 03:49:49;;;;;;;23.23;15.40;;;0.70;99.00;;;;;;5033291;28;20112;-45
2022/03/13 03:52:15;;;;;;;22.27;14.52;;;0.80;98.90;;;;;;5047625;28;20117;-44
2022/03/13 03:54:42;;;;;;;23.13;15.75;;;0.70;98.80;;;;;;5020149;28;20049;-44
2022/03/13 03:57:07;;;;;;;21.08;14.50;;;0.80;98.80;;;;;;5037809;28;20086;-43
2022/03/13 03:59:33;;;;;;;25.52;14.48;;;0.70;98.90;;;;;;5034161;28;20232;-44
2022/03/13 04:01:59;;;;;;;24.80;16.38;;;0.80;98.40;;;;;;5032342;28;20037;-44
2022/03/13 04:04:25;;;;;;;27.15;16.08;;;0.70;98.70;;;;;;5039009;28;20032;-44
2022/03/13 04:06:50;;;;;;;21.88;15.18;;;0.80;98.50;;;;;;5030705;28;20025;-44
2022/03/13 04:09:16;;;;;;;24.10;14.38;;;0.90;98.30;;;;;;5034466;28;20488;-44
2022/03/13 04:11:43;;;;;;;21.02;14.27;;;0.90;98.20;;;;;;5010165;28;20707;-43
2022/03/13 04:14:09;;;;;;;20.63;13.45;;;0.80;98.50;;;;;;5035597;28;20032;-44
2022/03/13 04:16:35;;;;;;;22.60;14.07;;;0.50;99.10;;;;;;5079990;28;20045;-44
2022/03/13 04:19:01;;;;;;;22.40;16.08;;;0.30;99.90;;;;;;5035195;28;20026;-44
2022/03/13 04:21:27;;;;;;;29.27;18.55;;;;;;;;;;5034124;28;20028;-44
2022/03/13 04:23:53;;;;;;;29.65;18.75;;;-0.70;99.90;;;;;;5033003;28;20030;-44
2022/03/13 04:26:20;;;;;;;30.50;19.92;;;-0.90;99.90;;;;;;5033490;28;20444;-43
2022/03/13 04:28:49;;;;;;;29.98;19.35;;;-1.20;99.90;;;;;;5036250;28;20670;-43
2022/03/13 04:31:16;;;;;;;32.13;20.17;;;-1.20;99.90;;;;;;5031537;28;20033;-44
2022/03/13 04:33:41;;;;;;;30.83;18.20;;;-0.80;99.90;;;;;;5036863;28;20030;-50
2022/03/13 04:36:13;;;;;;;27.60;17.40;;;-0.30;99.90;;;;;;5036635;28;20504;-44
2022/03/13 04:38:39;;;;;;;28.40;17.30;;;-0.20;99.90;;;;;;5037092;28;20029;-44
2022/03/13 04:41:06;;;;;;;28.55;17.80;;;;;;;;;;5050206;28;20496;-44
2022/03/13 04:43:32;;;;;;;30.55;18.90;;;;;;;;;;5040533;28;20102;-43
2022/03/13 04:45:58;;;;;;;31.52;18.95;;;;;;;;;;5039708;28;20061;-46
2022/03/13 04:48:24;;;;;;;33.78;17.58;;;;;;;;;;5041468;28;20025;-44
2022/03/13 04:50:49;;;;;;;29.55;19.67;;;0.60;99.90;;;;;;5036373;28;20030;-44
2022/03/13 04:53:16;;;;;;;31.45;19.92;;;0.60;99.30;;;;;;5084796;28;20049;-44
2022/03/13 04:55:42;;;;;;;34.70;22.25;;;0.60;99.10;;;;;;5023411;28;20482;-45
2022/03/13 04:58:09;;;;;;;32.70;21.20;;;0.60;99.40;;;;;;5038911;28;20037;-44
2022/03/13 05:00:38;;;;;;;39.97;26.17;;;;;;;;;;5040123;28;20020;-44
2022/03/13 05:03:07;;;;;;;54.58;32.50;;;;;;;;;;5037203;28;20030;-44
2022/03/13 05:05:34;;;;;;;48.53;29.48;;;;;;;;;;5035024;28;20030;-44
2022/03/13 05:08:01;;;;;;;43.20;25.17;;;-1.10;99.90;;;;;;5038083;28;20072;-44
2022/03/13 05:10:36;;;;;;;49.75;27.88;;;-1.40;99.90;;;;;;5036574;28;20363;-44
2022/03/13 05:13:03;;;;;;;47.75;27.98;;;-1.30;99.90;;;;;;5041113;28;20115;-44
2022/03/13 05:15:29;;;;;;;54.67;31.40;;;-0.80;99.90;;;;;;5072336;28;20104;-44
2022/03/13 05:17:57;;;;;;;36.78;22.08;;;;;;;;;;5034478;28;20080;-44
2022/03/13 05:20:23;;;;;;;29.88;19.95;;;;;;;;;;5038988;28;20112;-44
2022/03/13 05:22:49;;;;;;;33.47;20.05;;;;;;;;;;5037141;28;20022;-44
2022/03/13 05:25:15;;;;;;;30.33;20.20;;;0.10;99.90;;;;;;5088453;28;20049;-44
2022/03/13 05:27:41;;;;;;;31.30;19.65;;;0.10;99.90;;;;;;5022812;28;20049;-44
2022/03/13 05:30:08;;;;;;;33.95;19.80;;;-0.20;99.90;;;;;;5038255;28;20025;-44
2022/03/13 05:32:35;;;;;;;30.70;21.02;;;-0.60;99.90;;;;;;5048843;28;20132;-44
2022/03/13 05:35:02;;;;;;;27.90;21.17;;;-0.40;99.90;;;;;;5037615;28;20040;-44
2022/03/13 05:37:28;;;;;;;27.25;20.73;;;-0.10;99.90;;;;;;5037569;28;20032;-43
2022/03/13 05:39:54;;;;;;;27.50;17.83;;;;;;;;;;5025371;28;20444;-44
2022/03/13 05:42:24;;;;;;;23.58;17.45;;;;;;;;;;5037110;28;20100;-43
2022/03/13 05:44:53;;;;;;;25.40;18.00;;;;;;;;;;5036543;28;20033;-44
2022/03/13 05:47:19;;;;;;;28.30;18.02;;;;;;;;;;5034830;28;20036;-45
2022/03/13 05:49:46;;;;;;;28.63;19.25;;;;;;;;;;5050278;28;20072;-43
2022/03/13 05:52:14;;;;;;;32.50;20.27;;;;;;;;;;5036613;28;20029;-43
2022/03/13 05:54:41;;;;;;;43.55;26.58;;;0.70;99.90;;;;;;5039371;28;20069;-43
2022/03/13 05:57:09;;;;;;;42.97;24.92;;;;;;;;;;5035504;28;20026;-44
2022/03/13 05:59:35;;;;;;;36.45;24.88;;;1.40;99.90;;;;;;4989276;28;20037;-44
2022/03/13 06:02:04;;;;;;;40.40;23.50;;;;;;;;;;5035639;28;20116;-44
2022/03/13 06:04:32;;;;;;;40.38;24.38;;;;;;;;;;5033884;28;20477;-44
2022/03/13 06:06:59;;;;;;;42.00;24.67;;;;;;;;;;5034384;28;20037;-44
2022/03/13 06:09:25;;;;;;;41.45;25.67;;;;;;;;;;5033638;28;20052;-44
2022/03/13 06:11:51;;;;;;;47.97;26.13;;;;;;;;;;5035688;28;20029;-44
2022/03/13 06:14:18;;;;;;;41.75;25.20;;;;;;;;;;5036558;28;20013;-45
2022/03/13 06:16:44;;;;;;;41.45;25.48;;;1.80;99.90;;;;;;5034958;28;20072;-44
2022/03/13 06:19:10;;;;;;;41.90;26.35;;;1.90;99.90;;;;;;5032281;28;20022;-44
2022/03/13 06:21:39;;;;;;;43.17;28.05;;;2.10;99.90;;;;;;5084315;28;20036;-44
2022/03/13 06:24:05;;;;;;;41.33;29.25;;;;;;;;;;5035025;28;20033;-44
2022/03/13 06:26:31;;;;;;;41.80;27.50;;;2.60;99.90;;;;;;5036853;28;20457;-45
2022/03/13 06:28:57;;;;;;;45.75;28.75;;;;;;;;;;5036438;28;20052;-44
2022/03/13 06:31:24;;;;;;;42.40;29.35;;;;;;;;;;5031682;28;20088;-44
2022/03/13 06:33:50;;;;;;;40.72;29.05;;;;;;;;;;5036030;28;20397;-43
2022/03/13 06:36:16;;;;;;;50.67;33.00;;;;;;;;;;5053524;28;20095;-44
2022/03/13 06:38:42;;;;;;;51.15;35.53;;;3.90;99.90;;;;;;5033036;28;20056;-43
2022/03/13 06:41:07;;;;;;;51.72;34.80;;;4.30;99.90;;;;;;5037660;28;20052;-44
2022/03/13 06:43:38;;;;;;;41.65;26.58;;;;;;;;;;5036546;28;20030;-44
2022/03/13 06:46:04;;;;;;;36.80;22.75;;;;;;;;;;5030387;28;20042;-45
2022/03/13 06:48:31;;;;;;;29.63;18.48;;;4.90;98.20;;;;;;5035508;28;20040;-44
2022/03/13 06:50:58;;;;;;;26.52;17.73;;;5.50;99.90;;;;;;5035168;28;20465;-44
2022/03/13 06:53:24;;;;;;;26.85;17.45;;;;;;;;;;5034268;28;20033;-44
2022/03/13 06:55:54;;;;;;;30.60;20.30;;;;;;;;;;5047759;28;20041;-45
2022/03/13 06:58:20;;;;;;;28.75;19.45;;;6.70;97.30;;;;;;5034516;28;20057;-45
2022/03/13 07:00:48;;;;;;;27.92;19.85;;;;;;;;;;5031828;28;20105;-44
2022/03/13 07:03:14;;;;;;;29.23;20.77;;;;;;;;;;5030777;28;20045;-44
2022/03/13 07:05:41;;;;;;;27.90;19.83;;;6.20;99.90;;;;;;5034120;28;20036;-45
2022/03/13 07:08:07;;;;;;;36.17;21.83;;;;;;;;;;5035251;28;20044;-45
2022/03/13 07:10:33;;;;;;;32.05;22.58;;;7.20;98.70;;;;;;5034179;28;20033;-45
2022/03/13 07:12:59;;;;;;;31.63;22.05;;;;;;;;;;5047249;28;20045;-45
2022/03/13 07:15:27;;;;;;;34.60;26.15;;;7.60;99.90;;;;;;5031894;28;20029;-44
2022/03/13 07:17:53;;;;;;;33.88;25.05;;;;;;;;;;5048016;28;20049;-45
2022/03/13 07:20:20;;;;;;;30.55;19.85;;;;;;;;;;5033443;28;20041;-44
2022/03/13 07:22:46;;;;;;;22.27;16.42;;;8.80;94.00;;;;;;5033128;28;20374;-44
2022/03/13 07:25:14;;;;;;;23.73;15.70;;;8.80;88.90;;;;;;5033338;28;20029;-44
2022/03/13 07:27:40;;;;;;;29.05;19.10;;;9.10;87.80;;;;;;5032581;28;20469;-45
2022/03/13 07:30:14;;;;;;;26.90;18.15;;;9.30;87.30;;;;;;5033635;28;20022;-45
2022/03/13 07:32:41;;;;;;;27.95;17.80;;;9.40;84.00;;;;;;5018841;28;20046;-46
2022/03/13 07:35:07;;;;;;;30.50;20.17;;;;;;;;;;5037954;28;20021;-45
2022/03/13 07:37:34;;;;;;;32.30;22.95;;;;;;;;;;5033865;28;20116;-45
2022/03/13 07:40:01;;;;;;;24.67;17.83;;;;;;;;;;5033095;28;20167;-46
2022/03/13 07:42:27;;;;;;;26.45;18.05;;;;;;;;;;5049492;28;20061;-45
2022/03/13 07:44:53;;;;;;;27.05;20.10;;;;;;;;;;5031523;28;20143;-46
2022/03/13 07:47:19;;;;;;;31.77;18.15;;;;;;;;;;5032287;28;20033;-46
2022/03/13 07:49:45;;;;;;;26.83;17.45;;;;;;;;;;5032394;28;20028;-45
2022/03/13 07:52:11;;;;;;;25.42;17.08;;;12.30;73.00;;;;;;5030673;28;20017;-46
2022/03/13 07:54:38;;;;;;;25.27;18.33;;;;;;;;;;5032603;28;20018;-45
2022/03/13 07:57:04;;;;;;;27.25;19.92;;;;;;;;;;5032372;28;20029;-47
2022/03/13 07:59:30;;;;;;;30.63;19.88;;;;;;;;;;5032069;28;20040;-45
2022/03/13 08:01:56;;;;;;;24.55;17.08;;;13.00;93.30;;;;;;5031202;28;20030;-46
2022/03/13 08:04:24;;;;;;;34.45;20.60;;;;;;;;;;5019095;28;20512;-46
2022/03/13 08:06:50;;;;;;;42.17;23.33;;;;;;;;;;5031422;28;20044;-46
2022/03/13 08:09:16;;;;;;;25.70;16.77;;;15.10;67.90;;;;;;5036242;28;20067;-46
2022/03/13 08:11:42;;;;;;;29.38;15.85;;;15.20;68.20;;;;;;5036630;28;20025;-46
2022/03/13 08:14:09;;;;;;;23.77;16.15;;;;;;;;;;5039964;28;20026;-46
2022/03/13 08:16:35;;;;;;;19.98;15.20;;;;;;;;;;5037019;28;20037;-46
2022/03/13 08:19:02;;;;;;;21.13;12.20;;;;;;;;;;5039550;28;20033;-45
2022/03/13 08:21:28;;;;;;;16.90;12.20;;;;;;;;;;5037926;28;20025;-46
2022/03/13 08:23:54;;;;;;;19.67;14.02;;;16.30;73.20;;;;;;5052239;28;20041;-46
2022/03/13 08:26:20;;;;;;;23.33;15.07;;;17.20;65.70;;;;;;5016205;28;20649;-46
2022/03/13 08:28:46;;;;;;;16.83;12.75;;;17.00;65.10;;;;;;5039706;28;20037;-48
2022/03/13 08:31:13;;;;;;;17.92;12.60;;;17.00;64.60;;;;;;5036366;28;20025;-47
2022/03/13 08:33:42;;;;;;;15.70;11.98;;;17.20;63.50;;;;;;5085108;28;20087;-47
2022/03/13 08:36:08;;;;;;;15.93;11.98;;;17.50;65.20;;;;;;5024634;28;20060;-47
2022/03/13 08:38:33;;;;;;;16.63;12.85;;;16.80;64.00;;;;;;5037998;28;20037;-48
2022/03/13 08:40:59;;;;;;;16.92;11.57;;;18.20;91.20;;;;;;5037798;28;20381;-46
2022/03/13 08:43:25;;;;;;;16.38;12.27;;;;;;;;;;5084522;28;20056;-47
2022/03/13 08:45:51;;;;;;;16.42;13.10;;;;;;;;;;5084163;28;20424;-47
2022/03/13 08:48:17;;;;;;;16.38;12.85;;;;;;;;;;5038951;28;20130;-47
2022/03/13 08:50:43;;;;;;;17.65;12.02;;;;;;;;;;5067001;28;20044;-47
2022/03/13 08:53:10;;;;;;;16.42;12.85;;;;;;;;;;5038249;28;20026;-47
2022/03/13 08:55:36;;;;;;;18.90;14.27;;;;;;;;;;5027700;28;20441;-48
2022/03/13 08:58:02;;;;;;;15.75;12.68;;;19.80;96.50;;;;;;5035182;28;20052;-48
2022/03/13 09:00:27;;;;;;;16.33;12.50;;;19.60;85.80;;;;;;5034439;28;20064;-47
2022/03/13 09:02:53;;;;;;;16.58;12.95;;;19.70;82.80;;;;;;5049400;28;20037;-48
2022/03/13 09:05:21;;;;;;;14.52;12.00;;;20.00;90.60;;;;;;5039469;28;20099;-48
2022/03/13 09:07:47;;;;;;;19.05;12.70;;;20.20;91.40;;;;;;5035237;28;20401;-47
2022/03/13 09:10:13;;;;;;;16.80;11.82;;;;;;;;;;5034706;28;20032;-48
2022/03/13 09:12:39;;;;;;;12.98;10.38;;;20.60;57.90;;;;;;5035329;28;20033;-48
2022/03/13 09:15:06;;;;;;;11.35;9.13;;;20.10;58.00;;;;;;5035639;28;20030;-48
2022/03/13 09:17:32;;;;;;;12.02;8.93;;;18.50;57.10;;;;;;5047729;28;20087;-47
2022/03/13 09:19:58;;;;;;;11.05;8.70;;;19.10;58.30;;;;;;5034105;28;20428;-48
2022/03/13 09:22:29;;;;;;;15.90;11.13;;;18.30;59.40;;;;;;5033325;28;20029;-48
2022/03/13 09:24:57;;;;;;;11.80;9.10;;;18.80;59.80;;;;;;5041997;28;20469;-48
2022/03/13 09:27:27;;;;;;;12.93;9.85;;;18.30;62.20;;;;;;5032464;28;20051;-48
2022/03/13 09:29:54;;;;;;;10.30;7.13;;;;;;;;;;5036910;28;20036;-49
2022/03/13 09:32:22;;;;;;;14.32;10.02;;;16.30;93.10;;;;;;5037976;28;20054;-47
2022/03/13 09:34:48;;;;;;;9.93;8.77;;;15.40;68.00;;;;;;5037172;28;20038;-48
2022/03/13 09:37:14;;;;;;;9.73;7.50;;;17.70;57.50;;;;;;5038812;28;20116;-48
2022/03/13 09:39:40;;;;;;;12.23;9.30;;;16.90;55.50;;;;;;5034780;28;20497;-47
2022/03/13 09:42:06;;;;;;;10.55;7.30;;;17.10;58.00;;;;;;5037589;28;20540;-48
2022/03/13 09:44:32;;;;;;;15.57;11.57;;;17.10;55.70;;;;;;5069943;28;20041;-48
2022/03/13 09:46:58;;;;;;;10.23;8.02;;;;;;;;;;5026510;28;20394;-48
2022/03/13 09:49:24;;;;;;;11.60;8.63;;;19.60;93.20;;;;;;4989560;28;20041;-49
2022/03/13 09:51:51;;;;;;;9.98;7.68;;;19.00;55.60;;;;;;5028082;28;20048;-50
2022/03/13 09:54:17;;;;;;;16.90;9.63;;;18.50;53.70;;;;;;5023705;28;20065;-50
2022/03/13 09:56:43;;;;;;;9.02;6.95;;;18.80;55.60;;;;;;5021165;28;20088;-47
2022/03/13 09:59:09;;;;;;;10.27;7.07;;;18.70;54.20;;;;;;5026116;28;20025;-49
2022/03/13 10:01:35;;;;;;;10.57;7.03;;;19.30;53.10;;;;;;4967044;28;20033;-53
2022/03/13 10:04:01;;;;;;;9.63;7.47;;;;;;;;;;5024718;28;20030;-51
2022/03/13 10:06:29;;;;;;;9.40;6.72;;;;;;;;;;5025675;28;20034;-47
2022/03/13 10:08:54;;;;;;;11.75;7.22;;;20.30;51.50;;;;;;5023664;28;20033;-48
2022/03/13 10:11:33;;;;;;;12.60;8.32;;;20.20;53.00;;;;;;5025738;28;20434;-50
2022/03/13 10:14:10;;;;;;;12.90;8.75;;;;;;;;;;5024173;28;20149;-50
2022/03/13 10:16:39;;;;;;;8.73;6.95;;;19.30;69.40;;;;;;5023598;28;20030;-48
2022/03/13 10:19:19;;;;;;;8.52;6.85;;;18.60;52.00;;;;;;5033153;28;20067;-45
2022/03/13 10:22:09;;;;;;;9.70;7.05;;;19.10;53.70;;;;;;5039592;28;20044;-48
2022/03/13 10:24:43;;;;;;;9.55;7.05;;;20.00;52.90;;;;;;5037660;28;20083;-49
2022/03/13 10:27:09;;;;;;;12.20;6.90;;;19.10;52.30;;;;;;5038017;28;20029;-51
2022/03/13 10:29:35;;;;;;;9.10;6.55;;;20.10;53.70;;;;;;5048767;28;20045;-50
2022/03/13 10:32:02;;;;;;;11.40;6.80;;;20.70;51.40;;;;;;5036419;28;20057;-49
2022/03/13 10:34:28;;;;;;;12.57;8.85;;;;;;;;;;5034410;28;20544;-44
2022/03/13 10:36:54;;;;;;;19.00;9.70;;;;;;;;;;5036196;28;20029;-48
2022/03/13 10:39:21;;;;;;;9.82;7.32;;;;;;;;;;5033881;28;20049;-46
2022/03/13 10:41:56;;;;;;;8.90;6.82;;;;;;;;;;5038875;28;20083;-47
2022/03/13 10:44:25;;;;;;;10.45;7.05;;;;;;;;;;5010090;28;20056;-44
2022/03/13 10:47:04;;;;;;;11.13;7.22;;;;;;;;;;5082239;28;20494;-43
2022/03/13 10:49:52;;;;;;;8.50;7.13;;;21.00;51.70;;;;;;5039297;28;20143;-48
2022/03/13 10:52:31;;;;;;;10.02;7.00;;;20.90;52.20;;;;;;5028118;28;20025;-47
2022/03/13 10:55:20;;;;;;;10.70;6.35;;;20.00;52.00;;;;;;5036329;28;20034;-45
2022/03/13 10:57:59;;;;;;;11.55;7.22;;;19.80;51.90;;;;;;5046005;28;20049;-46
2022/03/13 11:00:25;;;;;;;8.35;6.55;;;19.70;51.60;;;;;;5014001;28;20037;-46
2022/03/13 11:02:52;;;;;;;9.15;6.72;;;19.50;52.40;;;;;;5013954;28;20120;-46
2022/03/13 11:05:17;;;;;;;7.55;6.30;;;19.80;51.90;;;;;;5029893;28;20125;-47
2022/03/13 11:07:44;;;;;;;9.70;6.68;;;19.90;51.40;;;;;;5030513;28;20495;-47
2022/03/13 11:10:11;;;;;;;10.65;6.85;;;19.80;51.80;;;;;;5030408;28;20041;-45
2022/03/13 11:12:39;;;;;;;11.85;6.97;;;19.60;52.00;;;;;;5034362;28;20033;-47
2022/03/13 11:15:08;;;;;;;10.25;7.15;;;20.30;52.80;;;;;;5027485;28;20049;-46
2022/03/13 11:17:35;;;;;;;9.95;7.18;;;20.50;52.10;;;;;;5028319;28;20096;-47
2022/03/13 11:20:04;;;;;;;10.48;7.13;;;20.30;52.60;;;;;;4996167;28;20083;-48
2022/03/13 11:22:30;;;;;;;8.50;6.90;;;20.40;52.90;;;;;;5033397;28;20040;-49
2022/03/13 11:25:07;;;;;;;11.35;7.72;;;20.30;52.60;;;;;;4999469;28;20041;-50
2022/03/13 11:27:35;;;;;;;12.00;6.78;;;20.40;51.70;;;;;;5013639;28;20042;-50
2022/03/13 11:30:01;;;;;;;9.52;6.90;;;20.20;51.40;;;;;;5033195;28;20029;-45
2022/03/13 11:32:42;;;;;;;10.88;7.38;;;20.70;51.80;;;;;;5030062;28;20075;-42
2022/03/13 11:35:13;;;;;;;10.18;8.05;;;20.90;51.70;;;;;;5029522;28;20088;-48
2022/03/13 11:37:43;;;;;;;10.85;7.05;;;20.90;51.10;;;;;;5031822;28;20040;-45
2022/03/13 11:40:11;;;;;;;12.45;7.88;;;21.10;51.70;;;;;;5034229;28;20083;-50
2022/03/13 11:42:56;;;;;;;11.38;7.50;;;21.10;51.30;;;;;;5030298;28;20033;-49
2022/03/13 11:45:30;;;;;;;9.07;7.18;;;20.30;52.00;;;;;;5022611;28;20046;-46
2022/03/13 11:48:12;;;;;;;16.40;10.30;;;19.80;52.20;;;;;;5049561;28;20058;-47
2022/03/13 11:51:01;;;;;;;13.15;9.23;;;19.40;82.10;;;;;;5034555;28;20037;-47
2022/03/13 11:53:29;;;;;;;12.07;7.80;;;19.00;52.70;;;;;;5034542;28;20029;-48
2022/03/13 11:56:02;;;;;;;11.32;7.70;;;18.90;52.40;;;;;;5040928;28;20175;-42
2022/03/13 11:58:51;;;;;;;10.32;7.72;;;18.50;52.40;;;;;;5036301;28;20503;-51
2022/03/13 12:01:20;;;;;;;10.52;8.13;;;18.90;53.70;;;;;;5038195;28;20033;-51
2022/03/13 12:04:01;;;;;;;8.23;6.55;;;18.90;52.70;;;;;;5038675;28;20095;-50
2022/03/13 12:06:46;;;;;;;11.10;7.10;;;18.90;52.80;;;;;;5040713;28;20457;-49
2022/03/13 12:09:19;;;;;;;15.68;9.57;;;19.10;52.70;;;;;;5037917;28;20050;-47
2022/03/13 12:11:59;;;;;;;9.57;7.13;;;19.30;52.90;;;;;;5039367;28;20038;-51
2022/03/13 12:14:53;;;;;;;8.07;6.45;;;19.40;53.00;;;;;;5035954;28;20155;-52
2022/03/13 12:17:20;;;;;;;8.88;6.35;;;19.10;52.80;;;;;;5036583;28;20033;-52
2022/03/13 12:19:47;;;;;;;7.80;5.78;;;18.70;52.40;;;;;;5041540;28;20033;-56
2022/03/13 12:22:14;;;;;;;8.20;7.10;;;18.10;52.30;;;;;;5037283;28;20033;-50
2022/03/13 12:24:49;;;;;;;9.40;6.10;;;18.30;51.90;;;;;;5034393;28;20037;-53
2022/03/13 12:27:15;;;;;;;9.40;6.65;;;17.60;51.60;;;;;;5040947;28;20044;-51
2022/03/13 12:29:40;;;;;;;8.57;5.68;;;18.20;52.30;;;;;;5039428;28;20038;-49
2022/03/13 12:32:13;;;;;;;7.10;5.63;;;18.30;52.50;;;;;;5040778;28;20429;-50
2022/03/13 12:34:41;;;;;;;7.88;5.80;;;17.90;52.00;;;;;;5038952;28;20036;-49
2022/03/13 12:37:09;;;;;;;6.28;5.32;;;18.10;53.30;;;;;;5067712;28;20060;-50
2022/03/13 12:39:48;;;;;;;10.82;6.22;;;17.70;52.10;;;;;;5036998;28;20037;-50
2022/03/13 12:42:23;;;;;;;8.38;5.32;;;17.50;53.90;;;;;;5034950;28;20056;-49
2022/03/13 12:45:05;;;;;;;9.20;5.95;;;17.40;52.60;;;;;;5053587;28;20037;-52
2022/03/13 12:47:33;;;;;;;8.57;6.63;;;17.50;53.50;;;;;;5052817;28;20044;-55
2022/03/13 12:49:59;;;;;;;8.18;5.53;;;17.60;53.10;;;;;;5059660;28;20186;-50
2022/03/13 12:52:26;;;;;;;8.38;6.25;;;17.30;53.00;;;;;;5054504;28;20041;-50
2022/03/13 12:54:57;;;;;;;7.90;6.38;;;17.50;52.00;;;;;;5027125;28;20552;-50
2022/03/13 12:57:22;;;;;;;9.15;5.53;;;18.10;53.20;;;;;;5053796;28;20063;-50
2022/03/13 12:59:49;;;;;;;8.70;6.50;;;16.90;51.60;;;;;;5053399;28;20051;-49
2022/03/13 13:02:24;;;;;;;9.50;6.57;;;17.60;51.50;;;;;;5040723;28;20049;-50
2022/03/13 13:04:57;;;;;;;9.40;6.57;;;18.00;51.70;;;;;;5059393;28;20079;-49
2022/03/13 13:07:34;;;;;;;8.68;6.50;;;18.30;53.20;;;;;;5054944;28;20029;-50
2022/03/13 13:10:02;;;;;;;10.27;5.82;;;18.30;55.20;;;;;;5059129;28;20052;-51
2022/03/13 13:12:36;;;;;;;8.80;6.00;;;17.20;52.70;;;;;;5054290;28;20032;-50
2022/03/13 13:15:08;;;;;;;16.88;10.80;;;18.00;54.40;;;;;;5055181;28;20080;-51